sensor_id;sensor_type;location;lat;lon;timestamp;P1;durP1;ratioP1;P2;durP2;ratioP2
41101;SDS011;26845;50.190;19.178;2024-03-29T00:00:51;2.70;;;1.50;;
41101;SDS011;26845;50.190;19.178;2024-03-29T00:03:26;3.30;;;1.50;;
41101;SDS011;26845;50.190;19.178;2024-03-29T00:05:59;3.30;;;1.50;;
41101;SDS011;26845;50.190;19.178;2024-03-29T00:08:33;4.50;;;1.90;;
41101;SDS011;26845;50.190;19.178;2024-03-29T00:11:07;2.00;;;1.40;;
41101;SDS011;26845;50.190;19.178;2024-03-29T00:13:41;2.30;;;1.60;;
41101;SDS011;26845;50.190;19.178;2024-03-29T00:16:15;2.40;;;1.60;;
41101;SDS011;26845;50.190;19.178;2024-03-29T00:18:49;3.10;;;1.60;;
41101;SDS011;26845;50.190;19.178;2024-03-29T00:21:23;6.30;;;2.00;;
41101;SDS011;26845;50.190;19.178;2024-03-29T00:23:56;3.00;;;2.20;;
41101;SDS011;26845;50.190;19.178;2024-03-29T00:26:30;3.80;;;2.90;;
41101;SDS011;26845;50.190;19.178;2024-03-29T00:29:04;4.30;;;2.70;;
41101;SDS011;26845;50.190;19.178;2024-03-29T00:31:37;6.50;;;2.70;;
41101;SDS011;26845;50.190;19.178;2024-03-29T00:34:08;5.70;;;3.20;;
41101;SDS011;26845;50.190;19.178;2024-03-29T00:36:42;6.20;;;2.90;;
41101;SDS011;26845;50.190;19.178;2024-03-29T00:39:17;6.90;;;2.50;;
41101;SDS011;26845;50.190;19.178;2024-03-29T00:42:03;4.80;;;2.90;;
41101;SDS011;26845;50.190;19.178;2024-03-29T00:44:36;2.80;;;2.00;;
41101;SDS011;26845;50.190;19.178;2024-03-29T00:47:10;3.90;;;2.30;;
41101;SDS011;26845;50.190;19.178;2024-03-29T00:49:43;5.00;;;2.40;;
41101;SDS011;26845;50.190;19.178;2024-03-29T00:52:14;4.20;;;2.60;;
41101;SDS011;26845;50.190;19.178;2024-03-29T00:54:48;3.90;;;2.50;;
41101;SDS011;26845;50.190;19.178;2024-03-29T00:57:21;2.90;;;2.00;;
41101;SDS011;26845;50.190;19.178;2024-03-29T00:59:55;4.90;;;2.80;;
41101;SDS011;26845;50.190;19.178;2024-03-29T01:02:31;4.40;;;2.50;;
41101;SDS011;26845;50.190;19.178;2024-03-29T01:05:05;5.20;;;2.80;;
41101;SDS011;26845;50.190;19.178;2024-03-29T01:07:42;5.10;;;2.70;;
41101;SDS011;26845;50.190;19.178;2024-03-29T01:10:15;3.90;;;2.80;;
41101;SDS011;26845;50.190;19.178;2024-03-29T01:12:49;3.60;;;2.80;;
41101;SDS011;26845;50.190;19.178;2024-03-29T01:15:23;5.60;;;2.70;;
41101;SDS011;26845;50.190;19.178;2024-03-29T01:17:56;3.60;;;2.90;;
41101;SDS011;26845;50.190;19.178;2024-03-29T01:20:30;6.20;;;3.90;;
41101;SDS011;26845;50.190;19.178;2024-03-29T01:23:04;3.80;;;2.20;;
41101;SDS011;26845;50.190;19.178;2024-03-29T01:25:37;4.80;;;2.60;;
41101;SDS011;26845;50.190;19.178;2024-03-29T01:28:11;5.40;;;1.90;;
41101;SDS011;26845;50.190;19.178;2024-03-29T01:30:51;3.90;;;2.60;;
41101;SDS011;26845;50.190;19.178;2024-03-29T01:33:28;3.90;;;2.70;;
41101;SDS011;26845;50.190;19.178;2024-03-29T01:36:02;5.00;;;2.50;;
41101;SDS011;26845;50.190;19.178;2024-03-29T01:38:35;6.80;;;2.40;;
41101;SDS011;26845;50.190;19.178;2024-03-29T01:41:09;4.50;;;2.30;;
41101;SDS011;26845;50.190;19.178;2024-03-29T01:43:43;3.00;;;1.80;;
41101;SDS011;26845;50.190;19.178;2024-03-29T01:46:18;3.50;;;2.00;;
41101;SDS011;26845;50.190;19.178;2024-03-29T01:51:38;3.00;;;2.10;;
41101;SDS011;26845;50.190;19.178;2024-03-29T01:54:12;3.20;;;2.00;;
41101;SDS011;26845;50.190;19.178;2024-03-29T01:56:46;2.80;;;2.30;;
41101;SDS011;26845;50.190;19.178;2024-03-29T01:59:19;2.20;;;2.00;;
41101;SDS011;26845;50.190;19.178;2024-03-29T02:01:53;2.70;;;2.00;;
41101;SDS011;26845;50.190;19.178;2024-03-29T02:04:27;4.20;;;2.20;;
41101;SDS011;26845;50.190;19.178;2024-03-29T02:07:00;2.90;;;1.90;;
41101;SDS011;26845;50.190;19.178;2024-03-29T02:09:34;2.70;;;1.90;;
41101;SDS011;26845;50.190;19.178;2024-03-29T02:12:12;4.60;;;2.20;;
41101;SDS011;26845;50.190;19.178;2024-03-29T02:14:46;3.40;;;2.20;;
41101;SDS011;26845;50.190;19.178;2024-03-29T02:17:20;2.70;;;2.50;;
41101;SDS011;26845;50.190;19.178;2024-03-29T02:19:53;2.90;;;2.30;;
41101;SDS011;26845;50.190;19.178;2024-03-29T02:22:41;3.70;;;2.20;;
41101;SDS011;26845;50.190;19.178;2024-03-29T02:25:14;2.00;;;1.50;;
41101;SDS011;26845;50.190;19.178;2024-03-29T02:27:47;2.70;;;2.00;;
41101;SDS011;26845;50.190;19.178;2024-03-29T02:30:21;4.10;;;2.10;;
41101;SDS011;26845;50.190;19.178;2024-03-29T02:32:55;3.10;;;1.80;;
41101;SDS011;26845;50.190;19.178;2024-03-29T02:35:28;1.70;;;1.20;;
41101;SDS011;26845;50.190;19.178;2024-03-29T02:38:02;2.60;;;1.60;;
41101;SDS011;26845;50.190;19.178;2024-03-29T02:40:36;2.50;;;1.60;;
41101;SDS011;26845;50.190;19.178;2024-03-29T02:43:09;2.40;;;1.20;;
41101;SDS011;26845;50.190;19.178;2024-03-29T02:45:43;2.30;;;1.80;;
41101;SDS011;26845;50.190;19.178;2024-03-29T02:48:17;3.90;;;1.60;;
41101;SDS011;26845;50.190;19.178;2024-03-29T02:50:51;3.00;;;1.50;;
41101;SDS011;26845;50.190;19.178;2024-03-29T02:53:25;2.40;;;1.70;;
41101;SDS011;26845;50.190;19.178;2024-03-29T02:55:58;3.50;;;2.20;;
41101;SDS011;26845;50.190;19.178;2024-03-29T02:58:34;4.00;;;2.30;;
41101;SDS011;26845;50.190;19.178;2024-03-29T03:01:09;3.20;;;2.50;;
41101;SDS011;26845;50.190;19.178;2024-03-29T03:03:42;2.90;;;2.60;;
41101;SDS011;26845;50.190;19.178;2024-03-29T03:06:16;3.40;;;3.10;;
41101;SDS011;26845;50.190;19.178;2024-03-29T03:08:50;2.80;;;2.60;;
41101;SDS011;26845;50.190;19.178;2024-03-29T03:11:23;4.90;;;2.70;;
41101;SDS011;26845;50.190;19.178;2024-03-29T03:14:07;2.80;;;2.10;;
41101;SDS011;26845;50.190;19.178;2024-03-29T03:16:41;2.80;;;2.60;;
41101;SDS011;26845;50.190;19.178;2024-03-29T03:19:14;3.70;;;2.50;;
41101;SDS011;26845;50.190;19.178;2024-03-29T03:21:50;2.70;;;2.30;;
41101;SDS011;26845;50.190;19.178;2024-03-29T03:24:22;4.70;;;2.60;;
41101;SDS011;26845;50.190;19.178;2024-03-29T03:26:56;3.60;;;1.80;;
41101;SDS011;26845;50.190;19.178;2024-03-29T03:29:29;3.40;;;2.20;;
41101;SDS011;26845;50.190;19.178;2024-03-29T03:32:03;2.90;;;2.10;;
41101;SDS011;26845;50.190;19.178;2024-03-29T03:34:37;2.40;;;1.70;;
41101;SDS011;26845;50.190;19.178;2024-03-29T03:37:11;3.10;;;1.60;;
41101;SDS011;26845;50.190;19.178;2024-03-29T03:39:44;2.60;;;2.20;;
41101;SDS011;26845;50.190;19.178;2024-03-29T03:42:18;2.80;;;1.70;;
41101;SDS011;26845;50.190;19.178;2024-03-29T03:44:52;2.60;;;1.90;;
41101;SDS011;26845;50.190;19.178;2024-03-29T03:47:25;2.90;;;2.50;;
41101;SDS011;26845;50.190;19.178;2024-03-29T03:49:59;2.20;;;1.90;;
41101;SDS011;26845;50.190;19.178;2024-03-29T03:52:33;3.70;;;1.90;;
41101;SDS011;26845;50.190;19.178;2024-03-29T03:55:06;4.10;;;1.80;;
41101;SDS011;26845;50.190;19.178;2024-03-29T03:57:40;3.00;;;1.80;;
41101;SDS011;26845;50.190;19.178;2024-03-29T04:00:14;1.60;;;1.40;;
41101;SDS011;26845;50.190;19.178;2024-03-29T04:02:51;4.50;;;1.90;;
41101;SDS011;26845;50.190;19.178;2024-03-29T04:08:09;4.00;;;2.50;;
41101;SDS011;26845;50.190;19.178;2024-03-29T04:10:49;11.00;;;3.90;;
41101;SDS011;26845;50.190;19.178;2024-03-29T04:13:47;7.70;;;3.50;;
41101;SDS011;26845;50.190;19.178;2024-03-29T04:16:46;12.60;;;5.00;;
41101;SDS011;26845;50.190;19.178;2024-03-29T04:22:28;5.00;;;2.60;;
41101;SDS011;26845;50.190;19.178;2024-03-29T04:25:28;8.70;;;4.10;;
41101;SDS011;26845;50.190;19.178;2024-03-29T04:28:26;8.40;;;4.20;;
41101;SDS011;26845;50.190;19.178;2024-03-29T04:33:47;10.00;;;5.00;;
41101;SDS011;26845;50.190;19.178;2024-03-29T04:36:45;5.40;;;3.10;;
41101;SDS011;26845;50.190;19.178;2024-03-29T04:39:26;5.10;;;2.80;;
41101;SDS011;26845;50.190;19.178;2024-03-29T04:42:25;3.70;;;2.30;;
41101;SDS011;26845;50.190;19.178;2024-03-29T04:45:24;2.00;;;1.60;;
41101;SDS011;26845;50.190;19.178;2024-03-29T04:48:04;3.60;;;1.60;;
41101;SDS011;26845;50.190;19.178;2024-03-29T04:51:02;2.40;;;1.70;;
41101;SDS011;26845;50.190;19.178;2024-03-29T04:54:01;2.10;;;1.40;;
41101;SDS011;26845;50.190;19.178;2024-03-29T04:57:04;2.90;;;1.60;;
41101;SDS011;26845;50.190;19.178;2024-03-29T04:59:41;2.10;;;1.50;;
41101;SDS011;26845;50.190;19.178;2024-03-29T05:02:40;3.40;;;1.40;;
41101;SDS011;26845;50.190;19.178;2024-03-29T05:05:38;1.40;;;1.30;;
41101;SDS011;26845;50.190;19.178;2024-03-29T05:08:19;2.70;;;1.30;;
41101;SDS011;26845;50.190;19.178;2024-03-29T05:11:18;1.70;;;1.30;;
41101;SDS011;26845;50.190;19.178;2024-03-29T05:14:20;2.30;;;1.40;;
41101;SDS011;26845;50.190;19.178;2024-03-29T05:17:16;2.60;;;1.40;;
41101;SDS011;26845;50.190;19.178;2024-03-29T05:20:15;2.40;;;1.60;;
41101;SDS011;26845;50.190;19.178;2024-03-29T05:22:55;1.30;;;1.20;;
41101;SDS011;26845;50.190;19.178;2024-03-29T05:25:54;2.20;;;1.30;;
41101;SDS011;26845;50.190;19.178;2024-03-29T05:28:52;1.20;;;1.10;;
41101;SDS011;26845;50.190;19.178;2024-03-29T05:31:54;1.80;;;1.40;;
41101;SDS011;26845;50.190;19.178;2024-03-29T05:34:51;2.90;;;1.30;;
41101;SDS011;26845;50.190;19.178;2024-03-29T05:37:50;2.40;;;1.30;;
41101;SDS011;26845;50.190;19.178;2024-03-29T05:40:30;1.90;;;1.30;;
41101;SDS011;26845;50.190;19.178;2024-03-29T05:43:28;2.10;;;1.50;;
41101;SDS011;26845;50.190;19.178;2024-03-29T05:46:27;1.90;;;1.50;;
41101;SDS011;26845;50.190;19.178;2024-03-29T05:49:26;3.00;;;1.50;;
41101;SDS011;26845;50.190;19.178;2024-03-29T05:52:25;2.30;;;1.20;;
41101;SDS011;26845;50.190;19.178;2024-03-29T05:58:04;1.70;;;1.30;;
41101;SDS011;26845;50.190;19.178;2024-03-29T06:01:03;2.30;;;1.40;;
41101;SDS011;26845;50.190;19.178;2024-03-29T06:03:44;4.40;;;1.90;;
41101;SDS011;26845;50.190;19.178;2024-03-29T06:06:24;2.90;;;1.80;;
41101;SDS011;26845;50.190;19.178;2024-03-29T06:09:04;2.30;;;1.50;;
41101;SDS011;26845;50.190;19.178;2024-03-29T06:11:44;2.80;;;1.80;;
41101;SDS011;26845;50.190;19.178;2024-03-29T06:14:42;1.90;;;1.40;;
41101;SDS011;26845;50.190;19.178;2024-03-29T06:17:41;2.50;;;1.60;;
41101;SDS011;26845;50.190;19.178;2024-03-29T06:20:40;2.20;;;1.30;;
41101;SDS011;26845;50.190;19.178;2024-03-29T06:23:21;2.20;;;1.50;;
41101;SDS011;26845;50.190;19.178;2024-03-29T06:26:19;2.80;;;1.40;;
41101;SDS011;26845;50.190;19.178;2024-03-29T06:29:18;2.80;;;1.30;;
41101;SDS011;26845;50.190;19.178;2024-03-29T06:34:58;3.10;;;1.10;;
41101;SDS011;26845;50.190;19.178;2024-03-29T06:37:59;4.20;;;1.20;;
41101;SDS011;26845;50.190;19.178;2024-03-29T06:40:58;1.80;;;1.10;;
41101;SDS011;26845;50.190;19.178;2024-03-29T06:43:58;2.30;;;1.10;;
41101;SDS011;26845;50.190;19.178;2024-03-29T06:46:56;1.90;;;1.20;;
41101;SDS011;26845;50.190;19.178;2024-03-29T06:49:37;1.50;;;0.90;;
41101;SDS011;26845;50.190;19.178;2024-03-29T06:52:17;2.40;;;1.40;;
41101;SDS011;26845;50.190;19.178;2024-03-29T06:55:15;1.70;;;1.00;;
41101;SDS011;26845;50.190;19.178;2024-03-29T06:58:14;4.20;;;1.50;;
41101;SDS011;26845;50.190;19.178;2024-03-29T07:01:18;2.30;;;1.30;;
41101;SDS011;26845;50.190;19.178;2024-03-29T07:04:21;4.00;;;1.10;;
41101;SDS011;26845;50.190;19.178;2024-03-29T07:07:16;2.10;;;1.40;;
41101;SDS011;26845;50.190;19.178;2024-03-29T07:10:22;4.20;;;1.20;;
41101;SDS011;26845;50.190;19.178;2024-03-29T07:13:07;3.00;;;1.30;;
41101;SDS011;26845;50.190;19.178;2024-03-29T07:15:51;3.70;;;1.30;;
41101;SDS011;26845;50.190;19.178;2024-03-29T07:18:18;3.50;;;1.00;;
41101;SDS011;26845;50.190;19.178;2024-03-29T07:20:51;3.10;;;1.00;;
41101;SDS011;26845;50.190;19.178;2024-03-29T07:23:25;2.10;;;1.10;;
41101;SDS011;26845;50.190;19.178;2024-03-29T07:26:00;2.10;;;1.10;;
41101;SDS011;26845;50.190;19.178;2024-03-29T07:28:32;1.90;;;1.20;;
41101;SDS011;26845;50.190;19.178;2024-03-29T07:31:06;1.50;;;1.30;;
41101;SDS011;26845;50.190;19.178;2024-03-29T07:33:40;2.00;;;1.00;;
41101;SDS011;26845;50.190;19.178;2024-03-29T07:36:18;3.70;;;1.40;;
41101;SDS011;26845;50.190;19.178;2024-03-29T07:38:51;2.10;;;0.90;;
41101;SDS011;26845;50.190;19.178;2024-03-29T07:41:20;1.60;;;1.00;;
41101;SDS011;26845;50.190;19.178;2024-03-29T07:43:54;3.90;;;0.90;;
41101;SDS011;26845;50.190;19.178;2024-03-29T07:46:35;2.10;;;0.90;;
41101;SDS011;26845;50.190;19.178;2024-03-29T07:49:11;1.90;;;1.00;;
41101;SDS011;26845;50.190;19.178;2024-03-29T07:51:43;2.50;;;0.90;;
41101;SDS011;26845;50.190;19.178;2024-03-29T07:54:13;2.50;;;0.70;;
41101;SDS011;26845;50.190;19.178;2024-03-29T07:56:46;1.20;;;0.50;;
41101;SDS011;26845;50.190;19.178;2024-03-29T07:59:20;2.30;;;0.80;;
41101;SDS011;26845;50.190;19.178;2024-03-29T08:01:47;0.90;;;0.50;;
41101;SDS011;26845;50.190;19.178;2024-03-29T08:04:21;0.70;;;0.50;;
41101;SDS011;26845;50.190;19.178;2024-03-29T08:06:54;1.70;;;0.40;;
41101;SDS011;26845;50.190;19.178;2024-03-29T08:09:22;2.30;;;0.30;;
41101;SDS011;26845;50.190;19.178;2024-03-29T08:11:56;1.30;;;0.50;;
41101;SDS011;26845;50.190;19.178;2024-03-29T08:14:29;0.80;;;0.30;;
41101;SDS011;26845;50.190;19.178;2024-03-29T08:16:56;0.60;;;0.40;;
41101;SDS011;26845;50.190;19.178;2024-03-29T08:19:27;1.20;;;0.60;;
41101;SDS011;26845;50.190;19.178;2024-03-29T08:22:01;1.60;;;0.70;;
41101;SDS011;26845;50.190;19.178;2024-03-29T08:24:35;1.50;;;0.40;;
41101;SDS011;26845;50.190;19.178;2024-03-29T08:27:02;1.30;;;0.60;;
41101;SDS011;26845;50.190;19.178;2024-03-29T08:29:36;1.20;;;0.70;;
41101;SDS011;26845;50.190;19.178;2024-03-29T08:32:03;1.70;;;0.60;;
41101;SDS011;26845;50.190;19.178;2024-03-29T08:34:37;4.10;;;0.70;;
41101;SDS011;26845;50.190;19.178;2024-03-29T08:37:05;1.40;;;0.70;;
41101;SDS011;26845;50.190;19.178;2024-03-29T08:39:34;1.40;;;0.50;;
41101;SDS011;26845;50.190;19.178;2024-03-29T08:42:04;1.00;;;0.70;;
41101;SDS011;26845;50.190;19.178;2024-03-29T08:44:37;2.20;;;0.40;;
41101;SDS011;26845;50.190;19.178;2024-03-29T08:47:04;1.50;;;0.50;;
41101;SDS011;26845;50.190;19.178;2024-03-29T08:49:31;1.10;;;0.40;;
41101;SDS011;26845;50.190;19.178;2024-03-29T08:51:58;0.70;;;0.40;;
41101;SDS011;26845;50.190;19.178;2024-03-29T08:54:33;2.70;;;0.70;;
41101;SDS011;26845;50.190;19.178;2024-03-29T08:57:00;1.00;;;0.70;;
41101;SDS011;26845;50.190;19.178;2024-03-29T08:59:33;0.50;;;0.40;;
41101;SDS011;26845;50.190;19.178;2024-03-29T09:02:03;1.30;;;0.50;;
41101;SDS011;26845;50.190;19.178;2024-03-29T09:04:37;1.30;;;0.80;;
41101;SDS011;26845;50.190;19.178;2024-03-29T09:07:04;1.30;;;0.60;;
41101;SDS011;26845;50.190;19.178;2024-03-29T09:09:38;2.50;;;0.80;;
41101;SDS011;26845;50.190;19.178;2024-03-29T09:12:07;0.70;;;0.50;;
41101;SDS011;26845;50.190;19.178;2024-03-29T09:14:41;0.40;;;0.40;;
41101;SDS011;26845;50.190;19.178;2024-03-29T09:17:08;1.20;;;0.60;;
41101;SDS011;26845;50.190;19.178;2024-03-29T09:19:38;0.60;;;0.40;;
41101;SDS011;26845;50.190;19.178;2024-03-29T09:22:05;1.80;;;0.60;;
41101;SDS011;26845;50.190;19.178;2024-03-29T09:24:37;1.80;;;0.50;;
41101;SDS011;26845;50.190;19.178;2024-03-29T09:27:08;0.80;;;0.40;;
41101;SDS011;26845;50.190;19.178;2024-03-29T09:29:34;0.70;;;0.30;;
41101;SDS011;26845;50.190;19.178;2024-03-29T09:32:08;1.40;;;0.60;;
41101;SDS011;26845;50.190;19.178;2024-03-29T09:34:35;0.90;;;0.40;;
41101;SDS011;26845;50.190;19.178;2024-03-29T09:37:09;2.70;;;0.50;;
41101;SDS011;26845;50.190;19.178;2024-03-29T09:39:36;0.70;;;0.30;;
41101;SDS011;26845;50.190;19.178;2024-03-29T09:42:07;0.80;;;0.30;;
41101;SDS011;26845;50.190;19.178;2024-03-29T09:44:40;1.20;;;0.60;;
41101;SDS011;26845;50.190;19.178;2024-03-29T09:47:15;2.50;;;0.30;;
41101;SDS011;26845;50.190;19.178;2024-03-29T09:49:48;1.60;;;0.30;;
41101;SDS011;26845;50.190;19.178;2024-03-29T09:52:16;0.70;;;0.30;;
41101;SDS011;26845;50.190;19.178;2024-03-29T09:54:47;0.50;;;0.30;;
41101;SDS011;26845;50.190;19.178;2024-03-29T09:57:21;0.20;;;0.20;;
41101;SDS011;26845;50.190;19.178;2024-03-29T09:59:49;0.50;;;0.40;;
41101;SDS011;26845;50.190;19.178;2024-03-29T10:02:15;1.20;;;0.40;;
41101;SDS011;26845;50.190;19.178;2024-03-29T10:04:42;0.80;;;0.30;;
41101;SDS011;26845;50.190;19.178;2024-03-29T10:07:11;1.00;;;0.40;;
41101;SDS011;26845;50.190;19.178;2024-03-29T10:09:40;1.30;;;0.30;;
41101;SDS011;26845;50.190;19.178;2024-03-29T10:12:09;0.50;;;0.30;;
41101;SDS011;26845;50.190;19.178;2024-03-29T10:14:44;0.70;;;0.30;;
41101;SDS011;26845;50.190;19.178;2024-03-29T10:17:20;0.80;;;0.50;;
41101;SDS011;26845;50.190;19.178;2024-03-29T10:19:47;1.90;;;0.40;;
41101;SDS011;26845;50.190;19.178;2024-03-29T10:22:15;0.40;;;0.40;;
41101;SDS011;26845;50.190;19.178;2024-03-29T10:24:43;1.10;;;0.40;;
41101;SDS011;26845;50.190;19.178;2024-03-29T10:27:10;0.60;;;0.30;;
41101;SDS011;26845;50.190;19.178;2024-03-29T10:29:36;1.90;;;0.50;;
41101;SDS011;26845;50.190;19.178;2024-03-29T10:32:02;0.80;;;0.40;;
41101;SDS011;26845;50.190;19.178;2024-03-29T10:34:29;0.80;;;0.30;;
41101;SDS011;26845;50.190;19.178;2024-03-29T10:37:03;3.10;;;0.40;;
41101;SDS011;26845;50.190;19.178;2024-03-29T10:39:30;1.80;;;0.40;;
41101;SDS011;26845;50.190;19.178;2024-03-29T10:41:57;0.30;;;0.20;;
41101;SDS011;26845;50.190;19.178;2024-03-29T10:44:24;0.80;;;0.20;;
41101;SDS011;26845;50.190;19.178;2024-03-29T10:46:52;1.20;;;0.20;;
41101;SDS011;26845;50.190;19.178;2024-03-29T10:49:20;1.10;;;0.30;;
41101;SDS011;26845;50.190;19.178;2024-03-29T10:51:48;1.30;;;0.30;;
41101;SDS011;26845;50.190;19.178;2024-03-29T10:54:18;1.00;;;0.30;;
41101;SDS011;26845;50.190;19.178;2024-03-29T10:56:46;1.40;;;0.20;;
41101;SDS011;26845;50.190;19.178;2024-03-29T11:05:21;0.20;;;0.20;;
41101;SDS011;26845;50.190;19.178;2024-03-29T11:08:11;0.20;;;0.10;;
41101;SDS011;26845;50.190;19.178;2024-03-29T11:10:41;0.40;;;0.30;;
41101;SDS011;26845;50.190;19.178;2024-03-29T11:16:04;1.10;;;0.30;;
41101;SDS011;26845;50.190;19.178;2024-03-29T11:18:30;1.30;;;0.30;;
41101;SDS011;26845;50.190;19.178;2024-03-29T11:20:57;1.40;;;0.20;;
41101;SDS011;26845;50.190;19.178;2024-03-29T11:23:24;1.10;;;0.20;;
41101;SDS011;26845;50.190;19.178;2024-03-29T11:25:54;1.90;;;0.30;;
41101;SDS011;26845;50.190;19.178;2024-03-29T11:28:29;2.90;;;0.30;;
41101;SDS011;26845;50.190;19.178;2024-03-29T11:31:01;1.10;;;0.60;;
41101;SDS011;26845;50.190;19.178;2024-03-29T11:33:35;0.20;;;0.10;;
41101;SDS011;26845;50.190;19.178;2024-03-29T11:36:22;1.10;;;0.20;;
41101;SDS011;26845;50.190;19.178;2024-03-29T11:38:56;0.50;;;0.30;;
41101;SDS011;26845;50.190;19.178;2024-03-29T11:41:27;0.30;;;0.30;;
41101;SDS011;26845;50.190;19.178;2024-03-29T11:43:54;0.50;;;0.20;;
41101;SDS011;26845;50.190;19.178;2024-03-29T11:46:20;0.10;;;0.10;;
41101;SDS011;26845;50.190;19.178;2024-03-29T11:48:47;0.50;;;0.10;;
41101;SDS011;26845;50.190;19.178;2024-03-29T11:51:20;1.10;;;0.10;;
41101;SDS011;26845;50.190;19.178;2024-03-29T11:53:49;0.40;;;0.20;;
41101;SDS011;26845;50.190;19.178;2024-03-29T11:56:17;0.70;;;0.30;;
41101;SDS011;26845;50.190;19.178;2024-03-29T11:58:44;0.60;;;0.30;;
41101;SDS011;26845;50.190;19.178;2024-03-29T12:01:10;1.00;;;0.40;;
41101;SDS011;26845;50.190;19.178;2024-03-29T12:03:40;1.70;;;0.20;;
41101;SDS011;26845;50.190;19.178;2024-03-29T12:06:07;0.60;;;0.30;;
41101;SDS011;26845;50.190;19.178;2024-03-29T12:08:35;0.30;;;0.20;;
41101;SDS011;26845;50.190;19.178;2024-03-29T12:11:03;1.40;;;0.20;;
41101;SDS011;26845;50.190;19.178;2024-03-29T12:13:30;0.30;;;0.20;;
41101;SDS011;26845;50.190;19.178;2024-03-29T12:15:57;0.30;;;0.20;;
41101;SDS011;26845;50.190;19.178;2024-03-29T12:18:25;0.50;;;0.20;;
41101;SDS011;26845;50.190;19.178;2024-03-29T12:20:57;0.80;;;0.30;;
41101;SDS011;26845;50.190;19.178;2024-03-29T12:23:23;0.40;;;0.10;;
41101;SDS011;26845;50.190;19.178;2024-03-29T12:25:50;1.60;;;0.10;;
41101;SDS011;26845;50.190;19.178;2024-03-29T12:28:19;0.90;;;0.20;;
41101;SDS011;26845;50.190;19.178;2024-03-29T12:30:46;0.70;;;0.30;;
41101;SDS011;26845;50.190;19.178;2024-03-29T12:33:14;0.80;;;0.30;;
41101;SDS011;26845;50.190;19.178;2024-03-29T12:35:42;2.00;;;0.20;;
41101;SDS011;26845;50.190;19.178;2024-03-29T12:38:10;0.80;;;0.30;;
41101;SDS011;26845;50.190;19.178;2024-03-29T12:40:38;0.60;;;0.30;;
41101;SDS011;26845;50.190;19.178;2024-03-29T12:43:06;0.40;;;0.20;;
41101;SDS011;26845;50.190;19.178;2024-03-29T12:45:34;0.30;;;0.20;;
41101;SDS011;26845;50.190;19.178;2024-03-29T12:48:02;0.50;;;0.10;;
41101;SDS011;26845;50.190;19.178;2024-03-29T12:50:29;1.00;;;0.20;;
41101;SDS011;26845;50.190;19.178;2024-03-29T12:53:00;0.30;;;0.20;;
41101;SDS011;26845;50.190;19.178;2024-03-29T12:55:28;0.90;;;0.20;;
41101;SDS011;26845;50.190;19.178;2024-03-29T12:58:08;1.00;;;0.40;;
41101;SDS011;26845;50.190;19.178;2024-03-29T13:00:37;0.90;;;0.20;;
41101;SDS011;26845;50.190;19.178;2024-03-29T13:03:04;1.00;;;0.30;;
41101;SDS011;26845;50.190;19.178;2024-03-29T13:05:31;1.20;;;0.30;;
41101;SDS011;26845;50.190;19.178;2024-03-29T13:08:05;1.50;;;0.30;;
41101;SDS011;26845;50.190;19.178;2024-03-29T13:10:32;0.30;;;0.10;;
41101;SDS011;26845;50.190;19.178;2024-03-29T13:12:58;2.00;;;0.30;;
41101;SDS011;26845;50.190;19.178;2024-03-29T13:15:25;2.00;;;0.40;;
41101;SDS011;26845;50.190;19.178;2024-03-29T13:17:52;2.00;;;0.40;;
41101;SDS011;26845;50.190;19.178;2024-03-29T13:20:20;1.20;;;0.40;;
41101;SDS011;26845;50.190;19.178;2024-03-29T13:22:47;0.90;;;0.30;;
41101;SDS011;26845;50.190;19.178;2024-03-29T13:25:16;0.80;;;0.40;;
41101;SDS011;26845;50.190;19.178;2024-03-29T13:27:48;0.90;;;0.30;;
41101;SDS011;26845;50.190;19.178;2024-03-29T13:30:23;0.40;;;0.20;;
41101;SDS011;26845;50.190;19.178;2024-03-29T13:32:51;1.60;;;0.40;;
41101;SDS011;26845;50.190;19.178;2024-03-29T13:35:18;0.90;;;0.30;;
41101;SDS011;26845;50.190;19.178;2024-03-29T13:37:55;0.50;;;0.30;;
41101;SDS011;26845;50.190;19.178;2024-03-29T13:40:22;1.60;;;0.50;;
41101;SDS011;26845;50.190;19.178;2024-03-29T13:42:51;0.90;;;0.40;;
41101;SDS011;26845;50.190;19.178;2024-03-29T13:45:18;1.20;;;0.40;;
41101;SDS011;26845;50.190;19.178;2024-03-29T13:47:45;1.30;;;0.40;;
41101;SDS011;26845;50.190;19.178;2024-03-29T13:50:13;1.20;;;0.40;;
41101;SDS011;26845;50.190;19.178;2024-03-29T13:52:40;1.80;;;0.50;;
41101;SDS011;26845;50.190;19.178;2024-03-29T13:55:14;3.40;;;0.50;;
41101;SDS011;26845;50.190;19.178;2024-03-29T13:57:40;0.50;;;0.30;;
41101;SDS011;26845;50.190;19.178;2024-03-29T14:00:08;1.50;;;0.30;;
41101;SDS011;26845;50.190;19.178;2024-03-29T14:02:38;1.40;;;0.60;;
41101;SDS011;26845;50.190;19.178;2024-03-29T14:05:12;2.90;;;0.50;;
41101;SDS011;26845;50.190;19.178;2024-03-29T14:07:39;1.80;;;0.40;;
41101;SDS011;26845;50.190;19.178;2024-03-29T14:10:05;1.20;;;0.40;;
41101;SDS011;26845;50.190;19.178;2024-03-29T14:12:33;1.00;;;0.40;;
41101;SDS011;26845;50.190;19.178;2024-03-29T14:15:00;0.90;;;0.50;;
41101;SDS011;26845;50.190;19.178;2024-03-29T14:17:26;4.00;;;0.50;;
41101;SDS011;26845;50.190;19.178;2024-03-29T14:19:54;1.70;;;0.40;;
41101;SDS011;26845;50.190;19.178;2024-03-29T14:22:21;2.00;;;0.60;;
41101;SDS011;26845;50.190;19.178;2024-03-29T14:24:48;3.30;;;0.50;;
41101;SDS011;26845;50.190;19.178;2024-03-29T14:27:14;1.70;;;0.40;;
41101;SDS011;26845;50.190;19.178;2024-03-29T14:29:41;1.70;;;0.50;;
41101;SDS011;26845;50.190;19.178;2024-03-29T14:32:10;2.50;;;0.80;;
41101;SDS011;26845;50.190;19.178;2024-03-29T14:34:36;3.10;;;0.70;;
41101;SDS011;26845;50.190;19.178;2024-03-29T14:37:05;2.70;;;0.50;;
41101;SDS011;26845;50.190;19.178;2024-03-29T14:39:32;1.40;;;0.60;;
41101;SDS011;26845;50.190;19.178;2024-03-29T14:41:58;1.20;;;0.70;;
41101;SDS011;26845;50.190;19.178;2024-03-29T14:44:28;2.50;;;0.90;;
41101;SDS011;26845;50.190;19.178;2024-03-29T14:46:54;1.70;;;0.50;;
41101;SDS011;26845;50.190;19.178;2024-03-29T14:49:28;1.60;;;0.50;;
41101;SDS011;26845;50.190;19.178;2024-03-29T14:51:54;3.80;;;0.70;;
41101;SDS011;26845;50.190;19.178;2024-03-29T14:54:23;2.70;;;0.50;;
41101;SDS011;26845;50.190;19.178;2024-03-29T14:56:51;2.00;;;0.60;;
41101;SDS011;26845;50.190;19.178;2024-03-29T14:59:18;1.80;;;0.60;;
41101;SDS011;26845;50.190;19.178;2024-03-29T15:01:45;1.10;;;0.60;;
41101;SDS011;26845;50.190;19.178;2024-03-29T15:04:11;1.80;;;0.60;;
41101;SDS011;26845;50.190;19.178;2024-03-29T15:06:38;1.90;;;0.70;;
41101;SDS011;26845;50.190;19.178;2024-03-29T15:09:04;5.70;;;0.90;;
41101;SDS011;26845;50.190;19.178;2024-03-29T15:11:31;1.50;;;0.60;;
41101;SDS011;26845;50.190;19.178;2024-03-29T15:14:00;3.40;;;0.80;;
41101;SDS011;26845;50.190;19.178;2024-03-29T15:16:26;2.80;;;0.80;;
41101;SDS011;26845;50.190;19.178;2024-03-29T15:18:53;1.90;;;0.70;;
41101;SDS011;26845;50.190;19.178;2024-03-29T15:21:21;3.80;;;0.80;;
41101;SDS011;26845;50.190;19.178;2024-03-29T15:23:48;1.70;;;0.80;;
41101;SDS011;26845;50.190;19.178;2024-03-29T15:26:14;2.30;;;1.00;;
41101;SDS011;26845;50.190;19.178;2024-03-29T15:28:41;2.80;;;0.90;;
41101;SDS011;26845;50.190;19.178;2024-03-29T15:31:25;3.60;;;1.30;;
41101;SDS011;26845;50.190;19.178;2024-03-29T15:33:52;2.90;;;0.80;;
41101;SDS011;26845;50.190;19.178;2024-03-29T15:36:18;2.20;;;1.10;;
41101;SDS011;26845;50.190;19.178;2024-03-29T15:39:09;4.10;;;1.10;;
41101;SDS011;26845;50.190;19.178;2024-03-29T15:41:39;2.30;;;1.00;;
41101;SDS011;26845;50.190;19.178;2024-03-29T15:44:06;1.50;;;0.70;;